Flight Track Log - Related Links

Times and Time Zones

All times are in EST time to prevent confusion due to time zone crossing. See the N605C flight status page for this flight to view local times or setup timezone preferences in your user account.


Time Position Orientation Groundspeed Altitude Reporting Facility
EST Latitude Longitude Course Direction KTS MPH feet Rate Location/Type
Fri 03:16:24 PM 38.5500 -90.1333 142° Southeast 124 143 1,200  Level Gateway (St. Louis) TRACON
Fri 03:17:24 PM 38.5333 -90.1167 142° Southeast 141 162 2,100 713 Climbing Gateway (St. Louis) TRACON
Fri 03:18:05 PM 38.4950 -90.1125 175° South 152 175 2,400 175 Climbing Kansas City Center
Fri 03:19:07 PM 38.4483 -90.1164 184° South 160 184 2,400 194 Level Kansas City Center
Fri 03:20:09 PM 38.3989 -90.1197 183° South 169 194 2,800 532 Climbing Kansas City Center
Fri 03:21:11 PM 38.3544 -90.1228 183° South 167 192 3,500 774 Climbing Kansas City Center
Fri 03:22:13 PM 38.3139 -90.1253 183° South 156 180 4,400 823 Climbing Kansas City Center
Fri 03:23:15 PM 38.2728 -90.1272 182° South 151 174 5,200 919 Climbing Kansas City Center
Fri 03:24:17 PM 38.2242 -90.1311 184° South 147 169 6,300 912 Climbing Kansas City Center
Fri 03:25:20 PM 38.1828 -90.1331 182° South 147 169 7,100 528 Climbing Kansas City Center
Fri 03:26:22 PM 38.1400 -90.1361 183° South 150 173 7,400 290 Climbing Kansas City Center
Fri 03:27:24 PM 38.0894 -90.1403 184° South 175 201 7,700 387 Climbing Kansas City Center
Fri 03:28:26 PM 38.0422 -90.1422 182° South 170 196 8,200 387 Climbing Kansas City Center
Fri 03:29:28 PM 37.9972 -90.1453 183° South 163 188 8,500 145 Climbing Kansas City Center
Fri 03:30:30 PM 37.9381 -90.1500 184° South 176 203 8,500  Level Kansas City Center
Fri 03:31:32 PM 37.8869 -90.1519 182° South 183 211 8,500  Level Kansas City Center
Fri 03:32:34 PM 37.8367 -90.1542 182° South 183 211 8,500  Level Kansas City Center
Fri 03:33:36 PM 37.7853 -90.1597 185° South 184 212 8,500  Level Kansas City Center
Fri 03:34:38 PM 37.7328 -90.1639 184° South 188 216 8,500  Level Kansas City Center
Fri 03:35:40 PM 37.6806 -90.1667 182° South 187 215 8,500  Level Kansas City Center
Fri 03:36:42 PM 37.6183 -90.1717 184° South 187 215 8,500  Level Kansas City Center
Fri 03:37:44 PM 37.5658 -90.1742 182° South 188 216 8,500  Level Kansas City Center
Fri 03:38:46 PM 37.5144 -90.1772 183° South 186 214 8,500  Level Kansas City Center
Fri 03:39:48 PM 37.4614 -90.1789 181° South 189 217 8,500  Level Kansas City Center
Fri 03:40:50 PM 37.4081 -90.1861 186° South 191 220 8,500  Level Kansas City Center
Fri 03:41:52 PM 37.3572 -90.1881 182° South 187 215 8,500  Level Kansas City Center
Fri 03:42:54 PM 37.3019 -90.1914 183° South 187 215 8,500  Level Kansas City Center
Fri 03:43:56 PM 37.2403 -90.1950 183° South 185 213 8,500  Level Kansas City Center
Fri 03:44:58 PM 37.1878 -90.1981 183° South 187 215 8,500  Level Kansas City Center
Fri 03:46:00 PM 37.1350 -90.2011 183° South 189 217 8,500  Level Kansas City Center
Fri 03:47:02 PM 37.0847 -90.2036 182° South 184 212 8,500  Level Kansas City Center
Fri 03:48:05 PM 37.0319 -90.2078 184° South 188 216 8,500  Level Kansas City Center
Fri 03:49:07 PM 36.9806 -90.2111 183° South 186 214 8,500  Level Kansas City Center
Fri 03:50:09 PM 36.9186 -90.2133 182° South 186 214 8,500  Level Kansas City Center
Fri 03:51:11 PM 36.8658 -90.2178 184° South 189 217 8,500  Level Kansas City Center
Fri 03:52:13 PM 36.8133 -90.2211 183° South 189 217 8,500  Level Kansas City Center
Fri 03:53:15 PM 36.7631 -90.2225 181° South 184 212 8,500 46 Level Kansas City Center
Fri 03:54:23 PM 36.6964 -90.2300 185° South 194 223 8,600 47 Climbing Memphis Center
Fri 03:55:23 PM 36.6422 -90.2328 182° South 194 223 8,600  Level Memphis Center
Fri 03:56:23 PM 36.5922 -90.2356 183° South 194 223 8,600  Level Memphis Center
Fri 03:57:23 PM 36.5381 -90.2408 184° South 194 223 8,600 -50 Level Memphis Center
Fri 03:58:23 PM 36.4858 -90.2433 182° South 194 223 8,500 -50 Descending Memphis Center
Fri 03:59:23 PM 36.4336 -90.2461 182° South 194 223 8,500  Level Memphis Center
Fri 04:00:23 PM 36.3817 -90.2486 182° South 194 223 8,500  Level Memphis Center
Fri 04:01:23 PM 36.3294 -90.2514 182° South 194 223 8,500  Level Memphis Center
Fri 04:02:23 PM 36.2753 -90.2567 184° South 194 223 8,500  Level Memphis Center
Fri 04:03:23 PM 36.2231 -90.2592 182° South 194 223 8,500  Level Memphis Center
Fri 04:04:23 PM 36.1711 -90.2619 182° South 194 223 8,500  Level Memphis Center
Fri 04:05:23 PM 36.1169 -90.2644 182° South 194 223 8,500  Level Memphis Center
Fri 04:06:23 PM 36.0647 -90.2697 185° South 194 223 8,500  Level Memphis Center
Fri 04:07:23 PM 36.0125 -90.2697 180° South 194 223 8,500  Level Memphis Center
Fri 04:08:23 PM 35.9606 -90.2725 182° South 194 223 8,500  Level Memphis Center
Fri 04:09:23 PM 35.9083 -90.2775 184° South 194 223 8,500  Level Memphis Center
Fri 04:10:23 PM 35.8561 -90.2803 182° South 194 223 8,500  Level Memphis Center
Fri 04:11:23 PM 35.8061 -90.2828 182° South 194 223 8,500  Level Memphis Center
Fri 04:12:23 PM 35.7519 -90.2853 182° South 194 223 8,500  Level Memphis Center
Fri 04:13:23 PM 35.7019 -90.2906 185° South 194 223 8,500  Level Memphis Center
Fri 04:14:23 PM 35.6519 -90.2931 182° South 181 208 8,500  Level Memphis Center
Fri 04:15:23 PM 35.5997 -90.2931 180° South 181 208 8,500  Level Memphis Center
Fri 04:16:23 PM 35.5456 -90.2983 185° South 186 214 8,500 -150 Level Memphis Center
Fri 04:17:23 PM 35.4933 -90.2983 180° South 186 214 8,200 -400 Descending Memphis Center
Fri 04:18:23 PM 35.4369 -90.3061 186° South 198 228 7,700 -500 Descending Memphis Center
Fri 04:19:23 PM 35.3786 -90.3086 182° South 198 228 7,200 -500 Descending Memphis Center
Fri 04:20:23 PM 35.3222 -90.3114 182° South 198 228 6,700 -500 Descending Memphis Center
Fri 04:21:23 PM 35.2639 -90.3139 182° South 203 234 6,200 -500 Descending Memphis Center
Fri 04:22:23 PM 35.2075 -90.3189 184° South 208 239 5,700 -450 Descending Memphis Center
Fri 04:23:23 PM 35.1556 -90.3214 182° South 208 239 5,300 -450 Descending Memphis Center
Fri 04:24:23 PM 35.0992 -90.3267 184° South 208 239 4,800 -551 Descending Memphis Center
Fri 04:26:28 PM 34.9833 -90.3333 183° South 196 226 3,600 -584 Descending Memphis TRACON
Fri 04:27:28 PM 34.9333 -90.3333 180° South 193 222 3,000 -600 Descending Memphis TRACON

Login

Don't have an account? Register now (free) for customized features, flight alerts, and more!